Great Falls International Airport Great Falls US
ICAO: KGTF
IATA: GTF
Category: Medium
Scheduled Services: Yes

Elevation: 3680 ft
TransAlt. 18000 ft.

Airport Communications:
APP/DEP:128.6
ATIS:126.6
GND/CLNC DEL:121.7
ANG OPS MAINT:28.89
RDO:122.6
TWR:118.7
UNICOM:122.95

KGTF Zoom In..

If you have problems with the map follow the link
https://www.worldairports.se/pages/airport.php?
ICAO=KGTF

Runways:

(A) RW 03 length 10502 ft width 150 ft
ILS 111.30 / hdg 29

(B) RW 07 length 4294 ft width 75 ft
---- / hdg 74

(C) RW 16 length 5722 ft width 150 ft
---- / hdg 164

(D) RW 21 length 10502 ft width 150 ft
---- / hdg 209

(E) RW 25 length 4294 ft width 75 ft
---- / hdg 254

(F) RW 34 length 5722 ft width 150 ft
---- / hdg 344

Location; KGTF
Day. 14 / Time. 17.53 Zulu
* Altimeter: 29.78
* Temperature: -06° c. -21.2°f.
* Wind from: 230° Speed 06 kn.
Dewpoint: -08° c.
Visibility: 7 Statute Miles.
Clouds: Overcast 6500 ft.

KGTF 141753Z 23006KT 7SM OVC065 M06/M08 A2978 RMK AO2 SLP146 T10561078 11056 21117 51004


Wind From 230°
Speed 06 kn.

 
 
jpsmedia worldairports.se 2019   terms of use